Time;durP1;ratioP1;P1;durP2;ratioP2;P2;SDS_P1;SDS_P2;PMS_P1;PMS_P2;Temp;Humidity;BMP_temperature;BMP_pressure;BME280_temperature;BME280_humidity;BME280_pressure;Samples;Min_cycle;Max_cycle;Signal;HPM_P1;HPM_P2
2022/12/05 00:01:39;;;;;;;20.40;9.10;;;;;;;8.82;76.91;98457.88;5402941;26;20066;-82
2022/12/05 00:04:09;;;;;;;17.05;7.43;;;;;;;9.47;74.42;98462.78;5403753;26;20024;-82
2022/12/05 00:06:38;;;;;;;14.02;6.22;;;;;;;8.74;77.42;98458.12;5403344;26;20115;-82
2022/12/05 00:09:17;;;;;;;12.32;5.00;;;;;;;8.34;79.59;98455.78;5404025;26;20056;-82
2022/12/05 00:11:44;;;;;;;9.35;3.45;;;;;;;7.99;80.22;98464.44;5402873;26;20043;-82
2022/12/05 00:14:12;;;;;;;15.02;7.22;;;;;;;8.20;80.35;98465.59;5402407;26;20039;-82
2022/12/05 00:16:40;;;;;;;13.95;5.80;;;;;;;7.43;83.70;98453.81;5402656;26;20139;-82
2022/12/05 00:19:10;;;;;;;21.02;8.00;;;;;;;7.26;85.18;98461.91;5402284;26;20075;-82
2022/12/05 00:21:37;;;;;;;17.08;7.72;;;;;;;7.35;84.96;98469.41;5380906;26;20024;-82
2022/12/05 00:24:06;;;;;;;17.42;7.12;;;;;;;8.11;82.18;98461.53;5400207;26;20385;-82
2022/12/05 00:26:33;;;;;;;17.83;7.43;;;;;;;7.77;81.99;98456.44;5400213;26;20322;-82
2022/12/05 00:29:00;;;;;;;21.42;8.35;;;;;;;8.24;80.39;98456.91;5400327;26;20031;-82
2022/12/05 00:31:28;;;;;;;18.08;8.18;;;;;;;8.51;78.87;98476.78;5399680;26;20027;-82
2022/12/05 00:33:55;;;;;;;18.70;7.93;;;;;;;8.42;79.66;98463.31;5398768;26;20056;-82
2022/12/05 00:36:25;;;;;;;20.40;8.02;;;;;;;8.75;78.13;98471.81;5380257;26;20101;-82
2022/12/05 00:38:53;;;;;;;19.05;8.48;;;;;;;9.06;76.85;98462.31;5399834;26;20060;-82
2022/12/05 00:41:25;;;;;;;21.70;9.60;;;;;;;8.11;80.73;98472.66;5398492;26;20024;-82
2022/12/05 00:43:53;;;;;;;18.77;8.32;;;;;;;9.05;77.28;98462.37;5379083;26;20064;-82
2022/12/05 00:46:23;;;;;;;19.08;8.73;;;;;;;8.76;77.50;98476.91;5398658;26;20095;-82
2022/12/05 00:48:52;;;;;;;21.08;9.77;;;;;;;9.14;76.40;98474.94;5399083;26;20044;-82
2022/12/05 00:51:30;;;;;;;21.50;9.57;;;;;;;9.31;75.10;98480.44;5399763;26;20020;-82
2022/12/05 00:54:02;;;;;;;21.45;9.00;;;;;;;9.38;75.36;98484.50;5400503;26;20036;-82
2022/12/05 00:56:30;;;;;;;22.73;10.43;;;;;;;8.54;77.92;98479.25;5399325;26;20030;-82
2022/12/05 00:58:59;;;;;;;18.23;8.18;;;;;;;8.54;79.48;98486.97;5380099;26;20060;-82
2022/12/05 01:01:34;;;;;;;23.45;10.48;;;;;;;8.78;77.59;98485.44;5399589;26;20023;-82
2022/12/05 01:04:04;;;;;;;25.58;10.50;;;;;;;8.23;80.86;98479.22;5398824;26;20044;-82
2022/12/05 01:06:31;;;;;;;22.95;10.40;;;;;;;8.25;80.24;98490.28;5398004;26;20056;-82
2022/12/05 01:08:58;;;;;;;22.58;9.98;;;;;;;8.72;78.13;98492.47;5399143;26;20031;-82
2022/12/05 01:11:26;;;;;;;23.52;10.73;;;;;;;8.34;80.35;98495.22;5400686;26;20048;-82
2022/12/05 01:13:53;;;;;;;22.50;10.02;;;;;;;8.97;77.32;98494.31;5401600;26;20031;-82
2022/12/05 01:16:29;;;;;;;25.33;9.68;;;;;;;9.08;75.60;98499.16;5401453;26;20028;-82
2022/12/05 01:19:06;;;;;;;24.65;10.20;;;;;;;8.96;76.39;98497.78;5401153;26;20020;-82
2022/12/05 01:21:33;;;;;;;23.58;9.85;;;;;;;8.85;77.78;98491.25;5401384;26;20057;-82
2022/12/05 01:24:00;;;;;;;24.77;10.73;;;;;;;8.84;77.40;98487.00;5401116;26;20043;-82
2022/12/05 01:26:26;;;;;;;;;;;;;;;8.72;78.36;98483.06;5401466;26;20024;-82
2022/12/05 01:28:54;;;;;;;25.77;10.13;;;;;;;8.85;77.15;98483.53;5400549;26;19936;-82
2022/12/05 01:31:24;;;;;;;23.05;10.13;;;;;;;8.80;78.16;98480.25;5379636;26;20508;-83
2022/12/05 01:33:53;;;;;;;22.45;9.77;;;;;;;8.67;77.92;98490.88;5399455;26;20088;-82
2022/12/05 01:36:22;;;;;;;21.85;9.10;;;;;;;8.67;78.99;98483.16;5400153;26;20024;-83
2022/12/05 01:38:49;;;;;;;20.58;9.25;;;;;;;8.33;81.23;98478.06;5399136;26;20112;-82
2022/12/05 01:41:24;;;;;;;20.98;9.77;;;;;;;8.59;78.95;98473.97;5379102;26;20027;-82
2022/12/05 01:44:17;;;;;;;25.95;11.40;;;;;;;8.66;78.32;98480.66;5399605;26;20057;-82
2022/12/05 01:46:47;;;;;;;24.90;10.60;;;;;;;8.37;79.55;98477.13;5328696;26;20024;-82
2022/12/05 01:49:25;;;;;;;24.65;10.80;;;;;;;7.95;82.12;98473.94;5354427;26;20060;-82
2022/12/05 01:51:54;;;;;;;24.63;11.02;;;;;;;8.77;78.28;98467.47;5354005;26;20021;-82
2022/12/05 01:54:22;;;;;;;23.20;10.15;;;;;;;7.98;81.39;98465.31;5355931;26;20055;-82
2022/12/05 01:56:52;;;;;;;25.88;10.93;;;;;;;8.20;80.28;98461.31;5353947;26;20039;-82
2022/12/05 01:59:21;;;;;;;27.25;11.95;;;;;;;7.97;83.11;98461.87;5353878;26;20101;-82
2022/12/05 02:01:48;;;;;;;24.83;11.38;;;;;;;8.85;78.56;98455.22;5356054;26;20751;-82
2022/12/05 02:04:15;;;;;;;25.70;11.85;;;;;;;7.95;83.01;98455.94;5355765;26;20697;-82
2022/12/05 02:06:42;;;;;;;27.77;11.50;;;;;;;8.57;80.24;98463.72;5355483;26;20025;-82
2022/12/05 02:09:13;;;;;;;28.17;10.38;;;;;;;8.83;77.48;98483.59;5354697;26;20056;-82
2022/12/05 02:12:00;;;;;;;27.23;11.35;;;;;;;9.30;75.30;98475.34;5356744;26;20048;-82
2022/12/05 02:14:49;;;;;;;26.70;11.00;;;;;;;8.56;78.78;98474.91;5355919;26;20557;-82
2022/12/05 02:17:39;;;;;;;23.58;10.38;;;;;;;8.40;78.02;98486.50;5355051;26;20036;-82
2022/12/05 02:20:30;;;;;;;25.08;11.23;;;;;;;8.85;77.94;98488.69;5343671;26;20780;-82
2022/12/05 02:23:39;;;;;;;25.35;11.43;;;;;;;9.29;75.49;98471.91;5356539;26;20048;-82
2022/12/05 02:26:35;;;;;;;24.17;11.35;;;;;;;9.08;76.78;98482.88;5286482;27;20047;-82
2022/12/05 02:29:45;;;;;;;24.92;10.73;;;;;;;9.52;74.23;98484.91;5353331;26;20033;-82
2022/12/05 02:32:19;;;;;;;27.85;11.05;;;;;;;8.93;76.93;98472.16;5353830;26;20430;-82
2022/12/05 02:34:58;;;;;;;27.20;11.90;;;;;;;8.71;77.84;98471.03;5355575;26;20056;-83
2022/12/05 02:37:36;;;;;;;30.17;12.40;;;;;;;8.47;78.58;98475.16;5355395;26;20024;-82
2022/12/05 02:40:14;;;;;;;30.40;12.90;;;;;;;8.45;78.86;98479.50;5354944;26;20028;-82
2022/12/05 02:43:02;;;;;;;29.23;12.55;;;;;;;8.93;77.73;98476.41;5354737;26;20033;-82
2022/12/05 02:45:31;;;;;;;25.12;11.30;;;;;;;9.71;73.83;98471.47;5381257;26;20377;-82
2022/12/05 02:47:58;;;;;;;32.65;13.27;;;;;;;9.36;74.87;98467.41;5380054;26;20632;-82
2022/12/05 02:50:29;;;;;;;28.35;12.37;;;;;;;9.50;74.61;98467.84;5400543;26;20077;-82
2022/12/05 02:53:00;;;;;;;31.30;13.27;;;;;;;9.40;75.03;98459.56;5400523;26;20027;-82
2022/12/05 02:55:28;;;;;;;28.00;12.00;;;;;;;9.18;75.97;98458.53;5379766;26;20386;-82
2022/12/05 02:57:58;;;;;;;29.30;12.25;;;;;;;9.36;75.50;98455.41;5379759;26;20040;-82
2022/12/05 03:00:24;;;;;;;27.83;12.30;;;;;;;8.94;75.63;98458.38;5379470;26;20024;-82
2022/12/05 03:02:55;;;;;;;32.65;12.98;;;;;;;9.33;75.19;98465.78;5398996;26;20059;-82
2022/12/05 03:05:39;;;;;;;27.98;11.93;;;;;;;9.80;73.22;98459.13;5379538;26;20861;-82
2022/12/05 03:08:10;;;;;;;32.80;12.60;;;;;;;9.15;74.66;98446.59;5378503;26;20052;-82
2022/12/05 03:10:39;;;;;;;32.17;12.27;;;;;;;9.98;72.64;98449.06;5398757;26;20118;-82
2022/12/05 03:13:12;;;;;;;32.72;10.35;;;;;;;8.74;77.62;98441.84;5378589;26;20675;-82
2022/12/05 03:15:42;;;;;;;27.62;11.95;;;;;;;8.30;80.22;98438.75;5398978;26;20028;-82
2022/12/05 03:18:09;;;;;;;34.88;14.23;;;;;;;8.86;78.52;98446.63;5379040;26;20048;-82
2022/12/05 03:20:41;;;;;;;;;;;;;;;9.42;74.64;98450.03;5399073;26;20659;-82
2022/12/05 03:23:19;;;;;;;29.77;10.30;;;;;;;9.01;77.29;98446.16;5399697;26;19978;-82
2022/12/05 03:25:53;;;;;;;48.15;12.85;;;;;;;8.53;78.78;98438.16;5379588;26;20047;-82
2022/12/05 03:28:23;;;;;;;41.20;12.95;;;;;;;9.08;77.68;98444.25;5379481;26;20048;-82
2022/12/05 03:30:52;;;;;;;46.22;14.02;;;;;;;8.17;79.86;98442.53;5398836;26;20028;-82
2022/12/05 03:33:23;;;;;;;30.45;12.40;;;;;;;9.32;75.92;98446.06;5379356;26;20104;-82
2022/12/05 03:36:03;;;;;;;45.45;13.35;;;;;;;9.61;74.57;98449.44;5379203;26;20101;-82
2022/12/05 03:38:34;;;;;;;45.45;12.93;;;;;;;9.63;74.11;98440.78;5399041;26;20052;-82
2022/12/05 03:41:06;;;;;;;60.47;14.13;;;;;;;9.10;76.28;98440.72;5378976;26;20068;-82
2022/12/05 03:44:21;;;;;;;38.28;12.88;;;;;;;8.66;77.52;98450.62;5399381;26;20070;-82
2022/12/05 03:46:52;;;;;;;27.37;10.63;;;;;;;9.99;72.11;98446.44;5344397;26;20118;-82
2022/12/05 03:49:33;;;;;;;25.55;9.10;;;;;;;9.52;73.92;98433.41;5353102;26;20044;-82
2022/12/05 03:52:24;;;;;;;61.28;13.95;;;;;;;8.99;76.80;98417.91;5351843;26;20074;-82
2022/12/05 03:55:03;;;;;;;71.65;13.93;;;;;;;8.52;78.38;98428.75;5351583;26;20082;-82
2022/12/05 03:58:07;;;;;;;103.90;14.35;;;;;;;9.42;75.82;98421.72;5351219;26;20060;-82
2022/12/05 04:00:38;;;;;;;124.47;16.30;;;;;;;8.72;78.53;98430.72;5351346;26;20048;-82
2022/12/05 04:03:19;;;;;;;78.35;14.48;;;;;;;8.51;80.42;98425.34;5353727;26;20060;-82
2022/12/05 04:05:56;;;;;;;114.88;15.13;;;;;;;8.79;78.53;98433.09;5353253;26;20411;-82
2022/12/05 04:08:51;;;;;;;41.45;9.75;;;;;;;8.59;80.10;98443.09;5354002;26;20021;-82
2022/12/05 04:11:21;;;;;;;163.18;18.40;;;;;;;8.81;78.60;98440.75;5349096;26;20079;-82
2022/12/05 04:14:07;;;;;;;149.52;16.02;;;;;;;9.31;75.99;98449.53;5354128;26;20025;-82
2022/12/05 04:22:42;;;;;;;169.70;17.50;;;;;;;8.84;77.86;98471.56;5316066;26;20041;-82
2022/12/05 04:28:44;;;;;;;132.68;15.40;;;;;;;10.07;72.44;98471.97;5342293;26;20025;-82
2022/12/05 04:31:25;;;;;;;141.60;16.48;;;;;;;9.33;75.17;98481.22;5353675;26;20070;-82
2022/12/05 04:34:05;;;;;;;136.05;14.27;;;;;;;9.20;75.36;98464.47;5351281;26;20572;-82
2022/12/05 04:36:33;;;;;;;112.07;14.05;;;;;;;9.69;74.24;98463.78;5350203;26;20033;-82
2022/12/05 04:39:04;;;;;;;196.10;18.48;;;;;;;9.06;76.48;98448.63;5350677;26;20036;-82
2022/12/05 04:41:58;;;;;;;214.75;19.37;;;;;;;8.34;80.64;98441.22;5351868;26;20093;-82
2022/12/05 04:44:28;;;;;;;242.13;21.77;;;;;;;8.33;81.23;98444.66;5350247;26;20051;-82
2022/12/05 04:46:59;;;;;;;86.53;13.85;;;;;;;7.84;84.61;98435.66;5377089;26;20028;-82
2022/12/05 04:49:28;;;;;;;184.70;20.10;;;;;;;8.86;79.03;98434.59;5397358;26;20395;-82
2022/12/05 04:52:02;;;;;;;252.57;23.33;;;;;;;8.69;80.35;98432.50;5377200;26;20109;-82
2022/12/05 04:54:45;;;;;;;224.40;20.65;;;;;;;8.20;82.34;98437.31;5377271;26;20413;-82
2022/12/05 04:57:22;;;;;;;82.20;12.37;;;;;;;9.29;77.64;98435.88;5377803;26;20095;-82
2022/12/05 04:59:49;;;;;;;259.98;21.70;;;;;;;9.27;77.22;98451.38;5397657;26;20060;-82
2022/12/05 05:02:20;;;;;;;280.25;23.10;;;;;;;8.83;79.00;98449.31;5377090;26;20051;-82
2022/12/05 05:04:51;;;;;;;362.35;26.98;;;;;;;9.17;77.02;98446.56;5377652;26;20398;-82
2022/12/05 05:07:18;;;;;;;255.25;20.40;;;;;;;9.04;78.42;98452.94;5377745;26;20046;-82
2022/12/05 05:09:46;;;;;;;280.40;24.33;;;;;;;8.87;78.25;98448.31;5377534;26;20060;-82
2022/12/05 05:12:13;;;;;;;121.15;14.75;;;;;;;9.42;76.04;98449.19;5397230;26;20020;-82
2022/12/05 05:14:44;;;;;;;263.92;22.15;;;;;;;9.03;77.41;98458.97;5397917;26;20024;-82
2022/12/05 05:17:11;;;;;;;225.80;19.12;;;;;;;9.50;75.72;98458.38;5397938;26;20064;-82
2022/12/05 05:19:38;;;;;;;225.18;19.08;;;;;;;9.14;76.69;98455.19;5398262;26;20060;-82
2022/12/05 05:22:05;;;;;;;302.90;21.70;;;;;;;9.39;76.48;98455.28;5398542;26;20664;-82
2022/12/05 05:24:32;;;;;;;363.40;26.00;;;;;;;9.46;75.96;98454.22;5398784;26;20044;-82
2022/12/05 05:26:59;;;;;;;353.15;26.40;;;;;;;8.62;80.20;98454.16;5399027;26;20063;-82
2022/12/05 05:29:26;;;;;;;249.00;18.45;;;;;;;8.48;79.68;98463.13;5398247;26;20032;-82
2022/12/05 05:31:52;;;;;;;158.82;15.48;;;;;;;8.03;83.21;98466.88;5399182;26;20024;-82
2022/12/05 05:34:19;;;;;;;97.12;12.07;;;;;;;8.40;81.51;98473.66;5398435;26;20084;-82
2022/12/05 05:36:51;;;;;;;335.73;26.10;;;;;;;8.49;83.09;98467.41;5397467;26;20071;-82
2022/12/05 05:39:18;;;;;;;278.17;24.10;;;;;;;8.73;80.87;98464.16;5397408;26;20060;-82
2022/12/05 05:41:45;;;;;;;287.92;22.60;;;;;;;9.11;79.04;98459.59;5397613;26;20386;-82
2022/12/05 05:44:11;;;;;;;313.33;24.42;;;;;;;8.06;83.08;98473.66;5396172;26;20715;-82
2022/12/05 05:46:38;;;;;;;;;;;;;;;8.65;80.87;98469.50;5398121;26;20094;-82
2022/12/05 05:49:05;;;;;;;270.70;22.00;;;;;;;8.94;79.62;98484.13;5397682;26;19967;-82
2022/12/05 05:51:32;;;;;;;337.20;23.27;;;;;;;9.74;75.64;98477.34;5397326;26;20019;-82
2022/12/05 05:54:00;;;;;;;358.33;25.70;;;;;;;9.42;76.97;98470.63;5397067;26;20051;-82
2022/12/05 05:56:28;;;;;;;409.87;28.35;;;;;;;9.58;76.16;98468.44;5396845;26;20024;-82
2022/12/05 05:58:59;;;;;;;353.10;24.17;;;;;;;8.52;80.78;98473.31;5397237;26;20066;-82
2022/12/05 06:01:26;;;;;;;404.30;28.92;;;;;;;9.62;76.36;98477.75;5397080;26;20020;-82
2022/12/05 06:03:53;;;;;;;396.10;28.10;;;;;;;9.54;75.43;98474.56;5397520;26;20044;-82
2022/12/05 06:06:21;;;;;;;167.82;17.65;;;;;;;10.09;73.90;98470.16;5398537;26;20071;-82
2022/12/05 06:08:48;;;;;;;163.80;16.70;;;;;;;8.91;80.12;98476.47;5398170;26;20064;-82
2022/12/05 06:11:19;;;;;;;82.03;12.13;;;;;;;9.23;77.78;98475.50;5398094;26;20752;-82
2022/12/05 06:13:53;;;;;;;414.05;30.20;;;;;;;8.81;78.27;98474.19;5397993;26;20048;-82
2022/12/05 06:16:20;;;;;;;315.30;25.95;;;;;;;8.05;84.05;98479.69;5397324;26;20055;-82
2022/12/05 06:18:48;;;;;;;129.12;15.15;;;;;;;8.65;81.53;98491.81;5395710;26;20024;-82
2022/12/05 06:21:16;;;;;;;310.98;26.58;;;;;;;9.19;78.51;98484.22;5395805;26;20763;-82
2022/12/05 06:23:43;;;;;;;121.72;15.90;;;;;;;9.46;77.00;98482.56;5396645;26;20053;-82
2022/12/05 06:26:12;;;;;;;342.35;28.62;;;;;;;9.17;76.96;98493.72;5395387;26;20126;-82
2022/12/05 06:28:39;;;;;;;394.73;29.52;;;;;;;8.64;80.61;98496.12;5375161;26;20051;-82
2022/12/05 06:31:14;;;;;;;208.43;19.30;;;;;;;9.21;77.77;98500.47;5395625;26;20398;-82
2022/12/05 06:33:41;;;;;;;379.10;28.83;;;;;;;9.48;76.45;98501.38;5394972;26;20048;-82
2022/12/05 06:36:12;;;;;;;329.98;27.15;;;;;;;9.92;74.76;98496.53;5394495;26;20051;-81
2022/12/05 06:38:39;;;;;;;340.77;23.85;;;;;;;9.58;75.98;98507.06;5394313;26;20058;-81
2022/12/05 06:41:11;;;;;;;259.70;21.42;;;;;;;9.18;76.92;98507.44;5393865;26;20043;-81
2022/12/05 06:43:37;;;;;;;426.42;29.48;;;;;;;9.31;77.45;98508.75;5373582;26;20039;-81
2022/12/05 06:46:06;;;;;;;126.65;20.75;;;;;;;9.42;76.42;98511.00;5393857;26;20052;-82
2022/12/05 06:48:33;;;;;;;420.15;35.03;;;;;;;9.64;76.56;98509.44;5394292;26;20660;-82
2022/12/05 06:51:01;;;;;;;345.90;27.80;;;;;;;9.73;75.78;98514.31;5395617;26;20032;-81
2022/12/05 06:53:28;;;;;;;235.95;17.33;;;;;;;9.61;74.78;98521.59;5390875;26;20051;-82
2022/12/05 06:56:02;;;;;;;116.95;14.48;;;;;;;9.23;77.05;98526.16;5390823;26;20056;-80
2022/12/05 06:58:29;;;;;;;86.15;12.48;;;;;;;8.04;83.98;98522.53;5391036;26;20074;-80
2022/12/05 07:03:47;;;;;;;344.98;25.12;;;;;;;8.54;82.05;98530.69;5390919;26;20048;-80
2022/12/05 07:06:15;;;;;;;312.73;24.58;;;;;;;8.39;82.75;98533.66;5391163;26;20060;-81
2022/12/05 07:08:43;;;;;;;399.20;31.10;;;;;;;8.32;83.79;98534.69;5370587;26;20406;-81
2022/12/05 07:11:10;;;;;;;164.95;16.40;;;;;;;8.44;83.10;98531.81;5352476;26;20052;-82
2022/12/05 07:13:37;;;;;;;413.20;28.80;;;;;;;8.97;81.00;98539.81;5390513;26;20044;-82
2022/12/05 07:16:05;;;;;;;430.35;27.35;;;;;;;7.45;88.00;98539.38;5392350;26;20056;-85
2022/12/05 07:18:34;;;;;;;330.05;40.00;;;;;;;8.84;80.84;98541.88;5391532;26;20052;-85
2022/12/05 07:21:04;;;;;;;417.70;29.45;;;;;;;8.52;83.25;98547.91;5392364;26;20055;-86
2022/12/05 07:23:40;;;;;;;103.57;12.30;;;;;;;8.59;82.71;98549.41;5397447;26;20092;-85
2022/12/05 07:26:14;;;;;;;92.10;12.32;;;;;;;7.82;86.20;98541.91;5395728;26;20073;-84
2022/12/05 07:28:41;;;;;;;401.63;26.40;;;;;;;8.01;86.09;98544.91;5370787;26;20063;-84
2022/12/05 07:31:10;;;;;;;385.83;26.67;;;;;;;8.18;85.36;98545.28;5390941;26;20115;-84
2022/12/05 07:33:37;;;;;;;109.35;11.82;;;;;;;8.47;84.14;98554.03;5391978;26;20044;-84
2022/12/05 07:36:08;;;;;;;309.55;21.37;;;;;;;8.11;84.41;98552.34;5391363;26;20060;-84
2022/12/05 07:38:35;;;;;;;441.02;29.20;;;;;;;7.95;86.31;98545.03;5392148;26;20104;-83
2022/12/05 07:41:07;;;;;;;167.32;13.73;;;;;;;7.63;87.10;98546.63;5391744;26;20047;-84
2022/12/05 07:43:40;;;;;;;65.25;7.70;;;;;;;7.56;88.87;98557.94;5391907;26;20096;-84
2022/12/05 07:46:10;;;;;;;493.35;30.50;;;;;;;8.03;86.28;98558.53;5391764;26;20109;-84
2022/12/05 07:48:38;;;;;;;141.12;13.15;;;;;;;7.83;86.86;98556.44;5391921;26;20425;-84
2022/12/05 07:51:06;;;;;;;308.83;21.40;;;;;;;8.12;85.87;98556.59;5371676;26;20108;-84
2022/12/05 07:53:33;;;;;;;335.27;21.42;;;;;;;8.06;87.21;98558.47;5391963;26;20040;-84
2022/12/05 07:56:02;;;;;;;227.60;17.62;;;;;;;7.74;87.01;98549.78;5391328;26;20389;-84
2022/12/05 07:58:30;;;;;;;148.00;11.35;;;;;;;7.62;89.02;98542.38;5372214;26;20120;-84
2022/12/05 08:01:08;;;;;;;302.23;19.85;;;;;;;7.71;nan;98551.59;5391816;26;20492;-83
2022/12/05 08:03:38;;;;;;;313.05;21.27;;;;;;;7.21;88.85;98554.41;5370870;26;35779;-83
2022/12/05 08:06:09;;;;;;;123.78;12.15;;;;;;;6.88;93.10;98552.53;5391946;26;20458;-84
2022/12/05 08:08:37;;;;;;;49.95;7.87;;;;;;;7.12;93.76;98554.59;5372115;26;20060;-85
2022/12/05 08:11:11;;;;;;;57.72;9.40;;;;;;;6.87;95.10;98559.38;5391592;26;20083;-85
2022/12/05 08:13:38;;;;;;;72.82;9.68;;;;;;;8.44;86.78;98556.69;5392114;26;20040;-85
2022/12/05 08:16:08;;;;;;;248.75;19.52;;;;;;;7.10;93.36;98556.34;5391746;26;20056;-85
2022/12/05 08:18:36;;;;;;;84.45;10.18;;;;;;;6.83;95.72;98560.31;5391500;26;20454;-85
2022/12/05 08:21:04;;;;;;;35.92;5.93;;;;;;;8.15;88.24;98565.09;5391545;26;20044;-85
2022/12/05 08:23:32;;;;;;;80.87;10.00;;;;;;;7.87;89.35;98577.75;5391743;26;20466;-84
2022/12/05 08:26:04;;;;;;;173.07;16.98;;;;;;;7.86;89.99;98573.50;5371351;26;20056;-85
2022/12/05 08:28:32;;;;;;;50.40;10.27;;;;;;;7.49;89.71;98582.06;5391722;26;20390;-85
2022/12/05 08:31:16;;;;;;;217.70;19.92;;;;;;;6.46;95.48;98564.44;5391065;26;20051;-85
2022/12/05 08:33:43;;;;;;;19.48;5.87;;;;;;;6.94;93.51;98571.22;5391888;26;20040;-86
2022/12/05 08:36:12;;;;;;;69.30;12.10;;;;;;;7.15;94.79;98567.37;5391588;26;20052;-85
2022/12/05 08:38:40;;;;;;;80.50;12.02;;;;;;;7.70;90.64;98566.16;5391249;26;20060;-85
2022/12/05 08:41:09;;;;;;;163.85;17.02;;;;;;;7.23;93.01;98568.06;5391594;26;20051;-85
2022/12/05 08:43:36;;;;;;;26.73;5.82;;;;;;;6.89;94.74;98559.34;5391334;26;20405;-85
2022/12/05 08:46:04;;;;;;;139.57;12.10;;;;;;;7.05;95.25;98573.56;5390741;26;20053;-85
2022/12/05 08:48:31;;;;;;;106.30;10.38;;;;;;;7.32;93.33;98568.72;5391716;26;20180;-85
2022/12/05 08:50:59;;;;;;;318.98;22.58;;;;;;;7.18;92.37;98567.31;5371358;26;20047;-85
2022/12/05 08:53:26;;;;;;;153.43;11.70;;;;;;;7.29;92.14;98559.38;5371049;26;20048;-85
2022/12/05 08:55:53;;;;;;;314.95;23.10;;;;;;;7.45;92.52;98559.91;5391503;26;20060;-85
2022/12/05 08:58:20;;;;;;;291.25;20.37;;;;;;;6.92;95.80;98565.28;5391658;26;20074;-85
2022/12/05 09:00:46;;;;;;;;;;;;;;;7.46;92.75;98566.72;5391367;26;20070;-85
2022/12/05 09:03:13;;;;;;;168.93;14.38;;;;;;;7.77;91.05;98577.16;5391691;26;20007;-85
2022/12/05 09:05:40;;;;;;;168.85;13.15;;;;;;;6.77;95.80;98573.25;5391408;26;20372;-85
2022/12/05 09:08:07;;;;;;;;;;;;;;;7.35;92.70;98572.09;5391416;26;20061;-83
2022/12/05 09:10:34;;;;;;;141.55;13.18;;;;;;;7.62;93.65;98565.50;5391221;26;19958;-81
2022/12/05 09:13:00;;;;;;;392.80;31.42;;;;;;;7.51;94.06;98565.72;5391372;26;20066;-83
2022/12/05 09:15:27;;;;;;;;;;;;;;;7.88;91.77;98564.06;5391792;26;20059;-83
2022/12/05 09:17:54;;;;;;;119.25;11.35;;;;;;;8.11;89.60;98566.91;5391740;26;20007;-83
2022/12/05 09:20:21;;;;;;;230.52;15.40;;;;;;;8.04;90.72;98570.50;5392019;26;20036;-83
2022/12/05 09:22:48;;;;;;;407.35;27.30;;;;;;;8.10;89.59;98565.22;5391347;26;20081;-83
2022/12/05 09:25:15;;;;;;;167.73;13.95;;;;;;;8.03;90.53;98555.97;5391279;26;20512;-83
2022/12/05 09:27:42;;;;;;;345.27;29.12;;;;;;;7.20;94.40;98557.00;5390505;26;20056;-82
2022/12/05 09:30:09;;;;;;;;;;;;;;;7.96;90.63;98564.69;5391712;26;20048;-82
2022/12/05 09:32:36;;;;;;;122.37;12.25;;;;;;;8.28;88.85;98569.06;5391324;26;19951;-82
2022/12/05 09:35:03;;;;;;;141.50;13.68;;;;;;;7.97;88.27;98577.50;5370461;26;20076;-82
2022/12/05 09:37:29;;;;;;;237.07;19.12;;;;;;;7.91;89.66;98571.69;5391026;26;20060;-82
2022/12/05 09:40:06;;;;;;;245.02;18.70;;;;;;;7.31;92.23;98565.31;5391025;26;20055;-82
2022/12/05 09:42:48;;;;;;;188.40;16.30;;;;;;;7.73;90.14;98568.66;5390639;26;20564;-82
2022/12/05 09:45:25;;;;;;;307.05;26.12;;;;;;;7.40;92.42;98566.84;5390489;26;20063;-82
2022/12/05 09:47:59;;;;;;;413.07;29.23;;;;;;;7.72;91.80;98564.41;5371542;26;20068;-82
2022/12/05 09:50:28;;;;;;;83.90;11.30;;;;;;;7.55;93.74;98561.37;5370847;26;20059;-82
2022/12/05 09:53:03;;;;;;;304.10;22.67;;;;;;;8.07;89.75;98570.44;5371240;26;20048;-82
2022/12/05 09:55:51;;;;;;;405.98;24.80;;;;;;;7.86;91.15;98560.66;5351649;26;20211;-82
2022/12/05 09:58:37;;;;;;;385.05;24.15;;;;;;;9.01;85.23;98561.97;5390811;26;20094;-83
2022/12/05 10:01:27;;;;;;;423.80;29.58;;;;;;;9.19;83.47;98564.03;5390680;26;20048;-82
2022/12/05 10:04:12;;;;;;;72.20;10.48;;;;;;;9.50;83.05;98574.28;5390708;26;20039;-82
2022/12/05 10:06:45;;;;;;;52.15;8.90;;;;;;;9.02;83.62;98561.09;5391011;26;20056;-82
2022/12/05 10:09:30;;;;;;;209.32;17.75;;;;;;;8.11;89.20;98559.22;5390696;26;20086;-81
2022/12/05 10:12:00;;;;;;;91.25;11.98;;;;;;;7.89;89.53;98546.03;5391097;26;20111;-83
2022/12/05 10:14:53;;;;;;;352.62;20.85;;;;;;;8.70;85.91;98541.41;5390857;26;20397;-83
2022/12/05 10:17:40;;;;;;;287.73;21.08;;;;;;;8.66;86.43;98552.66;5390672;26;20346;-82
2022/12/05 10:20:23;;;;;;;433.77;27.77;;;;;;;9.10;85.38;98556.56;5388967;26;20060;-82
2022/12/05 10:23:01;;;;;;;366.70;26.00;;;;;;;9.77;81.86;98545.97;5373186;26;20051;-81
2022/12/05 10:25:30;;;;;;;120.72;11.60;;;;;;;9.85;80.78;98541.41;5370811;26;20047;-82
2022/12/05 10:27:59;;;;;;;468.33;28.25;;;;;;;9.94;80.19;98551.44;5371646;26;20064;-80
2022/12/05 10:30:32;;;;;;;75.62;10.88;;;;;;;9.19;83.19;98547.75;5373162;26;20471;-80
2022/12/05 10:33:01;;;;;;;41.70;9.00;;;;;;;9.02;87.04;98544.81;5374180;26;20060;-79
2022/12/05 10:35:36;;;;;;;32.50;7.72;;;;;;;8.19;91.07;98538.44;5373169;26;20056;-79
2022/12/05 10:38:24;;;;;;;55.60;9.02;;;;;;;7.87;91.17;98528.94;5391600;26;20060;-80
2022/12/05 10:40:53;;;;;;;64.32;10.45;;;;;;;8.10;90.60;98526.69;5391766;26;20070;-81
2022/12/05 10:43:25;;;;;;;41.33;7.82;;;;;;;8.43;90.15;98524.16;5372321;26;20104;-81
2022/12/05 10:45:53;;;;;;;54.92;9.13;;;;;;;8.33;90.93;98524.34;5390513;26;20048;-81
2022/12/05 10:48:20;;;;;;;68.37;9.82;;;;;;;7.87;93.28;98527.25;5391711;26;20092;-81
2022/12/05 10:50:55;;;;;;;297.25;20.25;;;;;;;7.71;94.76;98520.78;5371509;26;20109;-80
2022/12/05 10:53:35;;;;;;;192.60;17.65;;;;;;;8.09;90.58;98519.84;5390603;26;20409;-80
2022/12/05 10:56:02;;;;;;;54.30;7.37;;;;;;;8.12;91.85;98515.47;5370977;26;20058;-80
2022/12/05 10:58:57;;;;;;;131.02;12.75;;;;;;;7.78;94.21;98505.19;5390897;26;20060;-80
2022/12/05 11:01:26;;;;;;;53.45;9.60;;;;;;;8.31;90.09;98515.84;5390934;26;20064;-80
2022/12/05 11:04:07;;;;;;;125.97;12.82;;;;;;;7.49;94.30;98510.16;5390953;26;20043;-81
2022/12/05 11:06:49;;;;;;;150.65;16.00;;;;;;;7.16;96.96;98497.22;5373650;26;20063;-80
2022/12/05 11:09:20;;;;;;;181.35;19.65;;;;;;;6.87;99.27;98495.25;5395110;26;20148;-79
2022/12/05 11:12:13;;;;;;;59.65;9.63;;;;;;;7.72;95.88;98486.50;5394799;26;20067;-80
2022/12/05 11:14:53;;;;;;;358.73;24.37;;;;;;;7.64;94.00;98491.81;5374117;26;20051;-80
2022/12/05 11:17:34;;;;;;;90.00;12.85;;;;;;;7.83;94.28;98490.50;5374030;26;20050;-80
2022/12/05 11:20:02;;;;;;;255.18;19.50;;;;;;;8.34;91.28;98512.34;5393367;26;20406;-81
2022/12/05 11:22:35;;;;;;;104.72;13.57;;;;;;;8.94;88.71;98504.72;5373811;26;20028;-80
2022/12/05 11:25:27;;;;;;;40.28;8.13;;;;;;;8.83;90.12;98496.47;5393892;26;20150;-80
2022/12/05 11:27:56;;;;;;;218.27;18.70;;;;;;;9.52;83.49;98494.38;5373890;26;20089;-80
2022/12/05 11:30:28;;;;;;;248.30;21.70;;;;;;;8.25;90.34;98492.00;5394665;26;20130;-80
2022/12/05 11:33:18;;;;;;;177.15;17.52;;;;;;;8.87;88.98;98495.47;5394674;26;20082;-80
2022/12/05 11:35:51;;;;;;;212.40;20.37;;;;;;;8.19;90.94;98489.59;5394855;26;20048;-80
2022/12/05 11:38:21;;;;;;;145.38;14.48;;;;;;;8.43;90.80;98498.44;5374284;26;20048;-80
2022/12/05 11:40:56;;;;;;;81.15;11.90;;;;;;;8.80;nan;98486.22;5374068;26;20063;-80
2022/12/05 11:43:23;;;;;;;208.93;19.75;;;;;;;8.75;87.99;98482.97;5372272;26;36624;-80
2022/12/05 11:45:56;;;;;;;;;;;;;;;8.80;88.19;98493.09;5392364;26;20501;-80
2022/12/05 11:48:42;;;;;;;82.18;12.18;;;;;;;8.49;90.03;98481.09;5372530;26;19954;-80
2022/12/05 11:51:30;;;;;;;130.95;14.43;;;;;;;8.78;88.41;98474.31;5392922;26;20059;-80
2022/12/05 11:54:15;;;;;;;119.15;14.15;;;;;;;8.09;92.75;98465.88;5392293;26;20063;-80
2022/12/05 11:57:30;;;;;;;211.43;22.62;;;;;;;8.25;93.69;98471.44;5393324;26;20060;-80
2022/12/05 12:00:15;;;;;;;50.17;12.63;;;;;;;8.40;92.72;98464.22;5392869;26;20113;-80
2022/12/05 12:03:12;;;;;;;118.47;18.05;;;;;;;9.15;87.58;98458.62;5392294;26;20060;-80